• Join FlightAware (Why Join?)
  • Login
  • US Flag 
04:18PM EDT


 

Airport Tracker/Info


-or-


 

Live Flight TrackerFlight Track Log ✈ SWA655 ✈ 24-Apr-2013 ✈ KSNA - KOAK

Flight Track Log - Related Links

Times and Time Zones

All times are in EDT time to prevent confusion due to time zone crossing. See the SWA655 flight status page for this flight to view local times or setup timezone preferences in your user account.

Time Position Orientation Groundspeed Altitude Reporting Facility
EDT Latitude Longitude Course Direction KTS MPH feet Rate Location/Type
02:28PM 33.6442 -117.8861 192° South 132 152 2,000  Level Los Angeles Center
02:29PM 33.6056 -117.8961 192° South 138 159 3,600 2,220 Climbing Los Angeles Center
02:30PM 33.5450 -117.9242 201° Southwest 228 262 6,700 3,480 Climbing Los Angeles Center
02:31PM 33.4814 -117.9808 217° Southwest 273 314 10,900 2,760 Climbing Los Angeles Center
02:32PM 33.4139 -118.0417 217° Southwest 293 337 12,500 2,460 Climbing Los Angeles Center
02:33PM 33.3411 -118.1414 229° Southwest 342 394 16,000 2,400 Climbing Los Angeles Center
02:34PM 33.3542 -118.2667 277° West 373 429 17,500 1,680 Climbing Los Angeles Center
02:35PM 33.3908 -118.3861 290° West 394 453 19,500 2,460 Climbing Los Angeles Center
02:36PM 33.4981 -118.4233 344° North 413 475 22,700 1,680 Climbing Los Angeles Center
02:37PM 33.6206 -118.4250 359° North 434 499 23,000 720 Climbing Los Angeles Center
02:38PM 33.7447 -118.4289 359° North 433 498 24,300 1,680 Climbing Los Angeles Center
02:39PM 33.8467 -118.4317 359° North 440 506 26,500 1,560 Climbing Los Angeles Center
02:40PM 33.9925 -118.4611 350° North 437 503 27,600 720 Climbing Los Angeles Center
02:41PM 34.1269 -118.5269 338° Northwest 435 501 28,000 180 Climbing Los Angeles Center
02:42PM 34.2383 -118.5814 338° Northwest 433 498 28,000 480 Level Los Angeles Center
02:43PM 34.3497 -118.6369 338° Northwest 433 498 29,000 1,380 Climbing Los Angeles Center
02:44PM 34.4678 -118.6950 338° Northwest 453 521 30,900 2,040 Climbing Los Angeles Center
02:45PM 34.5861 -118.7536 338° Northwest 461 531 33,300 1,980 Climbing Los Angeles Center
02:46PM 34.6783 -118.8061 335° Northwest 461 531 35,000 2,160 Climbing Los Angeles Center
02:47PM 34.8153 -118.9369 322° Northwest 446 513 37,800 1,440 Climbing Los Angeles Center
02:48PM 34.9006 -119.0164 323° Northwest 451 519 38,000 60 Climbing Los Angeles Center
02:49PM 35.0200 -119.1275 323° Northwest 451 519 38,000  Level Los Angeles Center
02:50PM 35.1183 -119.2208 322° Northwest 450 518 38,000  Level Los Angeles Center
02:52PM 35.2153 -119.3128 322° Northwest 445 512 38,000  Level Los Angeles Center
02:53PM 35.3119 -119.4056 322° Northwest 446 513 38,000  Level Los Angeles Center
02:54PM 35.4083 -119.4975 322° Northwest 441 507 38,000  Level Los Angeles Center
02:55PM 35.5053 -119.5894 322° Northwest 443 510 38,000  Level Los Angeles Center
02:56PM 35.6189 -119.7006 322° Northwest 439 505 38,000  Level Los Angeles Center
02:57PM 35.7322 -119.8086 322° Northwest 438 504 38,000  Level Oakland Center
02:58PM 35.8283 -119.8997 322° Northwest 440 506 38,000  Level Oakland Center
02:59PM 35.9217 -119.9917 321° Northwest 435 501 38,000  Level Oakland Center
03:00PM 36.0158 -120.0844 321° Northwest 435 501 38,000 -360 Level Oakland Center
03:01PM 36.1283 -120.1939 322° Northwest 430 495 37,300 -840 Descending Oakland Center
03:02PM 36.2219 -120.2861 322° Northwest 432 497 36,400 -960 Descending Oakland Center
03:03PM 36.3142 -120.3786 321° Northwest 429 494 35,400 -1,320 Descending Oakland Center
03:04PM 36.4081 -120.4719 321° Northwest 431 496 33,700 -1,920 Descending Oakland Center
03:05PM 36.4989 -120.5611 322° Northwest 420 483 31,500 -2,160 Descending Oakland Center
03:06PM 36.5864 -120.6506 321° Northwest 407 468 29,300 -2,100 Descending Oakland Center
03:07PM 36.6717 -120.7364 321° Northwest 395 455 27,200 -2,100 Descending Oakland Center
03:08PM 36.7511 -120.8203 320° Northwest 378 435 25,100 -2,160 Descending Oakland Center
03:09PM 36.8411 -120.9175 319° Northwest 364 419 22,800 -2,280 Descending Oakland Center
03:10PM 36.9133 -121.0025 317° Northwest 358 412 20,500 -2,280 Descending Oakland Center
03:11PM 36.9867 -121.0858 318° Northwest 357 411 18,200 -1,920 Descending Oakland Center
03:12PM 37.0511 -121.1606 317° Northwest 351 404 16,600 -1,620 Descending Oakland Center
03:13PM 37.1239 -121.2458 317° Northwest 332 382 14,900 -1,740 Descending Oakland Center
03:14PM 37.1894 -121.3211 318° Northwest 321 369 13,100 -1,800 Descending Oakland Center
03:15PM 37.2533 -121.3953 317° Northwest 315 362 11,300 -1,560 Descending Oakland Center
03:16PM 37.3156 -121.4711 316° Northwest 312 359 10,000 -1,200 Descending Oakland Center
03:17PM 37.3792 -121.5425 318° Northwest 287 330 8,900 -1,020 Descending Oakland Center
03:18PM 37.4000 -121.5667 317° Northwest 279 321 8,600 -900 Descending Northern Cal TRACON
03:19PM 37.4667 -121.6500 315° West 281 323 7,700 -960 Descending Northern Cal TRACON
03:20PM 37.4833 -121.7333 284° West 278 320 6,700 -900 Descending Northern Cal TRACON
03:21PM 37.5167 -121.8167 297° West 255 293 5,900 -720 Descending Northern Cal TRACON
03:22PM 37.5333 -121.9167 282° West 225 259 5,300 -720 Descending Northern Cal TRACON
03:23PM 37.5500 -121.9667 293° West 215 247 4,500 -900 Descending Northern Cal TRACON
03:24PM 37.5833 -122.0333 302° West 200 230 3,600 -900 Descending Northern Cal TRACON
03:25PM 37.6167 -122.0833 310° West 185 213 2,800 -900 Descending Northern Cal TRACON
03:26PM 37.6344 -122.1147 306° West 189 217 2,000 -900 Descending Oakland Center
03:27PM 37.6631 -122.1569 311° West 174 200 1,200 -780 Descending Oakland Center
03:28PM 37.6842 -122.1889 310° West 144 166 500 9,120 Descending Oakland Center
03:29PM 37.7047 -122.2203 310° West 127 146 20,000 18,840 Climbing Oakland Center
03:31PM 37.7167 -122.2167 270° West  Level FlightAware Approximate